Hiawassee, Florida
Current Conditions -  °F | °C
As of 11:53 AM on Friday 19 Dec 2014 (Local Time) from KORL Reporting Station
Clear Clear  
Wind Chill: 68°   Ceiling: Unl
Heat Index: 68°   Visibility: 10mi
Dew Point: 43°   Wind: 3mph
Humidity: 40%   Direction: NA
Pressure: 30.13"   Gusts: NA
Location:  28.5867°N, 81.4891°W
Report Text: KORL 191653Z VRB03KT 10SM CLR 20/06 A3013 RMK AO2 SLP207 T02000061
Loading
Personal Weather Stations






























Interactive Weather Map New forecast layout! Learn more

10-Day Weather Forecast

Advertisements
Track Severe Weather on mobile